createdAt,value
2023-03-02T04:01:54.014Z,64.60
2023-03-02T04:04:26.394Z,64.90
2023-03-02T04:06:55.112Z,65.00
2023-03-02T04:09:23.471Z,65.00
2023-03-02T04:11:54.244Z,65.00
2023-03-02T04:14:24.022Z,65.20
2023-03-02T04:16:54.180Z,65.40
2023-03-02T04:19:24.230Z,65.50
2023-03-02T04:21:56.973Z,65.60
2023-03-02T04:24:25.285Z,65.70
2023-03-02T04:26:56.554Z,66.00
2023-03-02T04:29:25.041Z,65.90
2023-03-02T04:31:54.895Z,66.00
2023-03-02T04:34:25.397Z,66.20
2023-03-02T04:36:53.711Z,66.30
2023-03-02T04:39:21.845Z,66.60
2023-03-02T04:41:52.494Z,66.80
2023-03-02T04:44:21.376Z,66.80
2023-03-02T04:46:50.402Z,66.90
2023-03-02T04:49:20.733Z,67.00
2023-03-02T04:51:51.048Z,67.30
2023-03-02T04:54:20.802Z,67.60
2023-03-02T04:56:49.551Z,67.70
2023-03-02T04:59:17.794Z,67.90
2023-03-02T05:01:45.731Z,68.50
2023-03-02T05:04:14.142Z,68.80
2023-03-02T05:06:43.510Z,69.00
2023-03-02T05:09:11.616Z,69.30
2023-03-02T05:11:39.624Z,69.50
2023-03-02T05:14:09.709Z,69.30
2023-03-02T05:16:40.512Z,69.30
2023-03-02T05:19:12.176Z,69.50
2023-03-02T05:21:40.666Z,69.30
2023-03-02T05:24:10.207Z,69.40
2023-03-02T05:26:38.267Z,69.50
2023-03-02T05:29:06.140Z,69.60
2023-03-02T05:31:35.963Z,69.50
2023-03-02T05:34:04.982Z,69.80
2023-03-02T05:36:33.673Z,69.70
2023-03-02T05:39:01.942Z,69.80
2023-03-02T05:41:31.226Z,70.00
2023-03-02T05:43:59.065Z,70.00
2023-03-02T05:46:27.684Z,70.10
2023-03-02T05:48:55.546Z,70.30
2023-03-02T05:51:23.375Z,70.30
2023-03-02T05:53:51.246Z,70.40
2023-03-02T05:56:20.705Z,70.40
2023-03-02T05:58:49.936Z,70.40
2023-03-02T06:01:17.798Z,70.50
2023-03-02T06:03:45.642Z,71.00
2023-03-02T06:06:14.581Z,71.70
2023-03-02T06:08:42.998Z,72.10
2023-03-02T06:11:11.768Z,72.40
2023-03-02T06:13:40.493Z,72.50
2023-03-02T06:16:10.239Z,72.60
2023-03-02T06:18:40.952Z,72.70
2023-03-02T06:21:09.532Z,72.90
2023-03-02T06:23:37.602Z,72.90
2023-03-02T06:26:09.184Z,74.00
2023-03-02T06:28:49.784Z,73.40
2023-03-02T06:31:21.034Z,73.40
2023-03-02T06:33:49.020Z,73.70
2023-03-02T06:36:17.032Z,73.60
2023-03-02T06:38:45.175Z,73.80
2023-03-02T06:41:13.065Z,74.10
2023-03-02T06:43:41.056Z,74.20
2023-03-02T06:46:09.142Z,74.10
2023-03-02T06:48:38.461Z,74.40
2023-03-02T06:51:07.638Z,74.40
2023-03-02T06:53:35.522Z,74.40
2023-03-02T06:56:03.370Z,74.30
2023-03-02T06:58:31.240Z,74.30
2023-03-02T07:00:59.117Z,74.30
2023-03-02T07:03:27.270Z,74.20
2023-03-02T07:05:56.683Z,74.20
2023-03-02T07:08:24.597Z,74.10
2023-03-02T07:10:52.598Z,74.10
2023-03-02T07:13:20.522Z,74.20
2023-03-02T07:15:48.455Z,74.30
2023-03-02T07:18:16.384Z,74.40
2023-03-02T07:20:44.339Z,74.40
2023-03-02T07:23:13.495Z,74.30
2023-03-02T07:25:41.319Z,74.10
2023-03-02T07:28:09.152Z,74.00
2023-03-02T07:30:36.987Z,73.80
2023-03-02T07:33:04.957Z,73.60
2023-03-02T07:35:32.776Z,73.50
2023-03-02T07:38:00.612Z,73.40
2023-03-02T07:40:29.891Z,73.40
2023-03-02T07:42:57.919Z,73.30
2023-03-02T07:45:26.246Z,73.40
2023-03-02T07:47:54.156Z,73.40
2023-03-02T07:50:21.971Z,73.50
2023-03-02T07:52:49.914Z,73.40
2023-03-02T07:55:17.815Z,73.20
2023-03-02T07:57:47.032Z,73.10
2023-03-02T08:00:16.224Z,72.90
2023-03-02T08:02:44.294Z,73.10
2023-03-02T08:05:13.376Z,72.70
2023-03-02T08:07:42.201Z,72.60
2023-03-02T08:10:11.510Z,72.40
2023-03-02T08:12:39.374Z,72.40
2023-03-02T08:15:09.944Z,71.90
2023-03-02T08:17:37.810Z,72.00
2023-03-02T08:20:06.345Z,71.80
2023-03-02T08:22:34.180Z,71.70
2023-03-02T08:25:02.062Z,71.40
2023-03-02T08:27:30.015Z,71.20
2023-03-02T08:29:57.921Z,70.80
2023-03-02T08:32:27.353Z,70.90
2023-03-02T08:34:55.207Z,70.60
2023-03-02T08:37:23.155Z,70.40
2023-03-02T08:39:51.741Z,70.30
2023-03-02T08:42:19.564Z,69.80
2023-03-02T08:44:47.400Z,69.70
2023-03-02T08:47:15.240Z,69.00
2023-03-02T08:49:45.152Z,68.70
2023-03-02T08:52:15.108Z,68.20
2023-03-02T08:54:43.101Z,67.90
2023-03-02T08:57:12.366Z,67.90
2023-03-02T08:59:40.284Z,67.50
2023-03-02T09:02:10.856Z,67.30
2023-03-02T09:04:38.865Z,67.40
2023-03-02T09:07:08.061Z,67.20
2023-03-02T09:09:35.919Z,67.80
2023-03-02T09:12:03.913Z,67.00
2023-03-02T09:14:31.779Z,67.00
2023-03-02T09:16:59.684Z,66.60
2023-03-02T09:19:27.590Z,66.30
2023-03-02T09:21:55.418Z,66.30
2023-03-02T09:24:24.581Z,66.10
2023-03-02T09:26:52.391Z,65.60
2023-03-02T09:29:20.228Z,65.50
2023-03-02T09:31:48.048Z,65.60
2023-03-02T09:34:15.922Z,66.00
2023-03-02T09:36:43.739Z,64.80
2023-03-02T09:39:12.474Z,65.30
2023-03-02T09:42:07.318Z,64.60
2023-03-02T09:44:56.218Z,65.10
2023-03-02T09:47:35.766Z,64.40
2023-03-02T09:50:16.152Z,64.40
2023-03-02T09:52:53.107Z,64.40
2023-03-02T09:55:25.133Z,63.70
2023-03-02T09:57:55.009Z,64.00
2023-03-02T10:00:29.018Z,63.30
2023-03-02T10:03:11.330Z,63.10
2023-03-02T10:05:46.528Z,63.20
2023-03-02T10:08:16.687Z,63.10
2023-03-02T10:10:47.443Z,62.70
2023-03-02T10:13:26.107Z,62.50
2023-03-02T10:16:07.282Z,62.20
2023-03-02T10:18:39.377Z,62.50
2023-03-02T10:21:14.150Z,62.50
2023-03-02T10:23:47.186Z,63.00
2023-03-02T10:26:24.123Z,62.90
2023-03-02T10:29:01.140Z,62.80
2023-03-02T10:31:30.913Z,62.60
2023-03-02T10:33:59.144Z,62.10
2023-03-02T10:36:28.894Z,62.20
2023-03-02T10:39:00.347Z,62.50
2023-03-02T10:41:32.966Z,62.50
2023-03-02T10:44:05.243Z,62.20
2023-03-02T10:46:41.951Z,61.90
2023-03-02T10:49:26.075Z,61.90
2023-03-02T10:51:59.409Z,61.90
2023-03-02T10:54:28.703Z,61.70
2023-03-02T10:56:58.994Z,61.70
2023-03-02T10:59:44.978Z,60.70
2023-03-02T11:02:22.367Z,60.40
2023-03-02T11:04:57.495Z,60.20
2023-03-02T11:07:27.836Z,59.70
2023-03-02T11:10:04.394Z,59.50
2023-03-02T11:12:33.898Z,59.30
2023-03-02T11:15:18.817Z,59.10
2023-03-02T11:17:49.639Z,59.30
2023-03-02T11:20:24.306Z,58.80
2023-03-02T11:23:03.455Z,59.20
2023-03-02T11:25:36.442Z,59.10
2023-03-02T11:28:13.421Z,59.70
2023-03-02T11:30:48.446Z,60.00
2023-03-02T11:33:21.860Z,59.80
2023-03-02T11:35:55.470Z,59.90
2023-03-02T11:38:27.281Z,59.80
2023-03-02T11:40:59.398Z,60.50
2023-03-02T11:43:27.683Z,60.40
2023-03-02T11:46:00.921Z,60.30
2023-03-02T11:48:32.321Z,60.60
2023-03-02T11:51:04.100Z,60.20
2023-03-02T11:53:41.882Z,60.40
2023-03-02T11:56:10.774Z,60.30
2023-03-02T11:58:39.832Z,61.10
2023-03-02T12:01:13.912Z,61.50
2023-03-02T12:03:44.837Z,60.90
2023-03-02T12:06:36.307Z,61.30
2023-03-02T12:09:33.140Z,61.10
2023-03-02T12:12:28.567Z,61.00
2023-03-02T12:14:56.377Z,61.00
2023-03-02T12:17:33.668Z,61.20
2023-03-02T12:20:26.540Z,61.20
2023-03-02T12:22:54.746Z,60.80
2023-03-02T12:25:38.129Z,61.20
2023-03-02T12:28:06.092Z,61.00
2023-03-02T12:30:33.954Z,61.00
2023-03-02T12:33:15.887Z,61.20
2023-03-02T12:35:44.032Z,61.50
2023-03-02T12:38:27.887Z,61.10
2023-03-02T12:41:12.773Z,61.20
2023-03-02T12:43:46.185Z,60.80
2023-03-02T12:46:29.801Z,60.80
2023-03-02T12:49:10.754Z,61.20
2023-03-02T12:51:49.381Z,61.10
2023-03-02T12:54:20.026Z,61.50
2023-03-02T12:56:49.068Z,61.20
2023-03-02T12:59:25.599Z,61.00
2023-03-02T13:01:53.585Z,60.80
2023-03-02T13:04:27.549Z,61.10
2023-03-02T13:06:56.172Z,61.10
2023-03-02T13:09:24.689Z,61.00
2023-03-02T13:11:54.927Z,61.10
2023-03-02T13:14:26.168Z,61.20
2023-03-02T13:16:59.917Z,60.90
2023-03-02T13:19:30.608Z,61.50
2023-03-02T13:21:59.399Z,61.40
2023-03-02T13:24:32.663Z,61.30
2023-03-02T13:27:06.539Z,61.20
2023-03-02T13:29:34.559Z,61.40
2023-03-02T13:32:19.962Z,60.50
2023-03-02T13:34:51.854Z,60.50
2023-03-02T13:37:23.233Z,61.20
2023-03-02T13:39:58.204Z,61.30
2023-03-02T13:42:28.891Z,60.60
2023-03-02T13:44:56.898Z,61.20
2023-03-02T13:47:25.736Z,60.70
2023-03-02T13:49:54.908Z,60.40
2023-03-02T13:52:27.214Z,60.90
2023-03-02T13:54:55.408Z,61.50
2023-03-02T13:57:30.723Z,61.20
2023-03-02T13:59:59.364Z,61.00
2023-03-02T14:02:30.042Z,60.60
2023-03-02T14:04:59.608Z,60.40
2023-03-02T14:07:27.533Z,61.20
2023-03-02T14:09:57.473Z,60.30
2023-03-02T14:12:28.095Z,60.10
2023-03-02T14:14:59.269Z,59.80
2023-03-02T14:17:27.676Z,59.90
2023-03-02T14:19:56.402Z,60.50
2023-03-02T14:22:29.536Z,59.30
2023-03-02T14:24:57.487Z,59.70
2023-03-02T14:27:27.116Z,59.30
2023-03-02T14:29:54.968Z,59.20
2023-03-02T14:32:23.061Z,58.60
2023-03-02T14:34:50.974Z,57.80
2023-03-02T14:37:22.989Z,57.50
2023-03-02T14:39:55.516Z,56.20
2023-03-02T14:42:24.352Z,54.60
2023-03-02T14:44:52.811Z,52.70
2023-03-02T14:47:21.700Z,50.80
2023-03-02T14:49:49.699Z,49.70
2023-03-02T14:52:23.478Z,48.10
2023-03-02T14:54:55.797Z,47.70
2023-03-02T14:57:26.072Z,47.80
2023-03-02T14:59:54.620Z,46.90
2023-03-02T15:02:26.793Z,46.00
2023-03-02T15:04:56.815Z,45.00
2023-03-02T15:07:26.966Z,44.90
2023-03-02T15:09:57.483Z,44.80
2023-03-02T15:12:25.826Z,43.80
2023-03-02T15:14:53.778Z,43.80
2023-03-02T15:17:21.615Z,43.30
2023-03-02T15:19:49.744Z,43.30
2023-03-02T15:22:17.607Z,42.70
2023-03-02T15:24:45.448Z,43.00
2023-03-02T15:27:14.656Z,43.10
2023-03-02T15:29:44.896Z,43.20
2023-03-02T15:32:13.557Z,43.90
2023-03-02T15:34:41.839Z,44.80
2023-03-02T15:37:11.195Z,45.50
2023-03-02T15:39:39.159Z,46.60
2023-03-02T15:42:07.054Z,47.10
2023-03-02T15:44:36.396Z,47.60
2023-03-02T15:47:04.467Z,48.20
2023-03-02T15:49:32.794Z,48.50
2023-03-02T15:52:00.891Z,48.80
2023-03-02T15:54:29.573Z,49.20
2023-03-02T15:56:57.737Z,49.70
2023-03-02T15:59:27.416Z,49.40
2023-03-02T16:01:59.245Z,48.60
2023-03-02T16:04:27.761Z,48.10
2023-03-02T16:06:56.266Z,47.80
2023-03-02T16:09:24.947Z,48.10
2023-03-02T16:11:53.581Z,48.50
2023-03-02T16:14:21.397Z,48.60
2023-03-02T16:16:49.538Z,48.90
2023-03-02T16:19:20.033Z,49.10
2023-03-02T16:21:47.976Z,49.00
2023-03-02T16:24:16.804Z,49.30
2023-03-02T16:26:45.364Z,49.30
2023-03-02T16:29:14.590Z,49.50
2023-03-02T16:31:43.266Z,49.40
2023-03-02T16:34:11.765Z,49.70
2023-03-02T16:36:42.107Z,49.90
2023-03-02T16:39:11.693Z,50.00
2023-03-02T16:41:40.689Z,50.00
2023-03-02T16:44:08.652Z,50.10
2023-03-02T16:46:41.756Z,50.30
2023-03-02T16:49:10.095Z,50.50
2023-03-02T16:51:40.395Z,50.50
2023-03-02T16:54:08.403Z,50.00
2023-03-02T16:56:36.248Z,49.50
2023-03-02T16:59:04.210Z,49.50
2023-03-02T17:01:32.229Z,49.60
2023-03-02T17:04:00.202Z,48.90
2023-03-02T17:06:28.325Z,49.10
2023-03-02T17:08:57.735Z,49.10
2023-03-02T17:11:25.674Z,49.10
2023-03-02T17:13:53.530Z,48.80
2023-03-02T17:16:21.336Z,48.60
2023-03-02T17:18:49.203Z,48.30
2023-03-02T17:21:17.755Z,47.90
2023-03-02T17:23:47.901Z,47.90
2023-03-02T17:26:17.269Z,48.00
2023-03-02T17:28:45.231Z,47.80
2023-03-02T17:31:13.379Z,47.70
2023-03-02T17:33:41.323Z,47.60
2023-03-02T17:36:12.054Z,48.20
2023-03-02T17:38:40.434Z,48.60
2023-03-02T17:41:09.386Z,48.10
2023-03-02T17:43:40.460Z,48.20
2023-03-02T17:46:13.486Z,48.60
2023-03-02T17:48:42.066Z,48.70
2023-03-02T17:51:11.667Z,48.60
2023-03-02T17:53:39.846Z,48.40
2023-03-02T17:56:08.144Z,48.40
2023-03-02T17:58:44.726Z,48.80
2023-03-02T18:01:16.165Z,49.20
2023-03-02T18:03:45.508Z,49.80
2023-03-02T18:06:14.273Z,50.10
2023-03-02T18:08:42.095Z,50.10
2023-03-02T18:11:10.492Z,50.20
2023-03-02T18:13:38.508Z,50.20
2023-03-02T18:16:07.062Z,49.60
2023-03-02T18:18:36.395Z,49.30
2023-03-02T18:21:04.426Z,49.70
2023-03-02T18:23:32.388Z,50.60
2023-03-02T18:26:00.268Z,50.90
2023-03-02T18:28:28.286Z,51.10
2023-03-02T18:30:56.216Z,51.40
2023-03-02T18:33:24.380Z,51.80
2023-03-02T18:35:53.556Z,51.80
2023-03-02T18:38:21.449Z,51.60
2023-03-02T18:40:49.273Z,52.20
2023-03-02T18:43:17.078Z,52.20
2023-03-02T18:45:44.979Z,52.00
2023-03-02T18:48:12.914Z,52.10
2023-03-02T18:50:40.703Z,51.50
2023-03-02T18:53:12.712Z,51.90
2023-03-02T18:55:41.273Z,51.90
2023-03-02T18:58:13.639Z,52.10
2023-03-02T19:00:41.732Z,52.20
2023-03-02T19:03:09.786Z,52.10
2023-03-02T19:05:37.679Z,52.00
2023-03-02T19:08:08.506Z,52.50
2023-03-02T19:10:40.621Z,52.80
2023-03-02T19:13:09.248Z,52.80
2023-03-02T19:15:37.136Z,53.20
2023-03-02T19:18:05.270Z,53.20
2023-03-02T19:20:33.396Z,52.90
2023-03-02T19:23:01.625Z,53.30
2023-03-02T19:25:29.710Z,53.60
2023-03-02T19:27:58.891Z,53.70
2023-03-02T19:30:27.792Z,53.80
2023-03-02T19:32:56.080Z,54.00
2023-03-02T19:35:26.348Z,54.10
2023-03-02T19:37:54.358Z,53.90
2023-03-02T19:40:24.799Z,53.60
2023-03-02T19:42:53.843Z,53.70
2023-03-02T19:45:28.989Z,53.90
2023-03-02T19:47:57.765Z,53.70
2023-03-02T19:50:26.762Z,53.40
2023-03-02T19:52:55.527Z,53.10
2023-03-02T19:55:24.715Z,52.80
2023-03-02T19:57:59.647Z,52.90
2023-03-02T20:00:30.967Z,52.70
2023-03-02T20:02:59.006Z,52.90
2023-03-02T20:05:28.035Z,52.50
2023-03-02T20:07:56.443Z,52.70
2023-03-02T20:10:30.189Z,52.40
2023-03-02T20:12:59.314Z,52.20
2023-03-02T20:15:29.880Z,52.30
2023-03-02T20:17:59.407Z,52.10
2023-03-02T20:20:27.890Z,52.30
2023-03-02T20:22:55.880Z,52.40
2023-03-02T20:25:23.716Z,53.00
2023-03-02T20:27:52.881Z,52.60
2023-03-02T20:30:23.737Z,52.30
2023-03-02T20:32:53.003Z,52.20
2023-03-02T20:35:21.774Z,52.50
2023-03-02T20:37:50.132Z,52.50
2023-03-02T20:40:19.753Z,52.70
2023-03-02T20:42:47.737Z,52.60
2023-03-02T20:45:15.707Z,51.90
2023-03-02T20:47:44.433Z,51.90
2023-03-02T20:50:17.533Z,51.80
2023-03-02T20:52:45.458Z,51.80
2023-03-02T20:55:13.745Z,51.60
2023-03-02T20:57:41.893Z,51.10
2023-03-02T21:00:12.237Z,51.10
2023-03-02T21:02:40.268Z,50.70
2023-03-02T21:05:08.789Z,50.60
2023-03-02T21:07:38.198Z,51.10
2023-03-02T21:10:08.058Z,51.50
2023-03-02T21:12:36.109Z,51.60
2023-03-02T21:15:04.697Z,51.50
2023-03-02T21:17:32.536Z,52.10
2023-03-02T21:20:00.401Z,52.80
2023-03-02T21:22:28.317Z,53.60
2023-03-02T21:24:57.657Z,54.00
2023-03-02T21:27:25.533Z,54.30
2023-03-02T21:29:53.410Z,54.40
2023-03-02T21:32:21.313Z,54.40
2023-03-02T21:34:49.190Z,54.40
2023-03-02T21:37:17.021Z,54.80
2023-03-02T21:39:44.884Z,55.50
2023-03-02T21:42:14.132Z,55.60
2023-03-02T21:44:41.984Z,55.60
2023-03-02T21:47:09.844Z,55.40
2023-03-02T21:49:37.681Z,55.60
2023-03-02T21:52:07.729Z,55.50
2023-03-02T21:54:35.624Z,55.20
2023-03-02T21:57:03.453Z,55.50
2023-03-02T21:59:32.632Z,55.60
2023-03-02T22:02:01.031Z,55.80
2023-03-02T22:04:29.001Z,55.90
2023-03-02T22:06:56.825Z,56.30
2023-03-02T22:09:24.645Z,55.90
2023-03-02T22:11:52.501Z,55.60
2023-03-02T22:14:20.826Z,55.60
2023-03-02T22:16:51.920Z,55.50
2023-03-02T22:19:25.562Z,55.60
2023-03-02T22:21:54.521Z,55.40
2023-03-02T22:24:25.288Z,55.10
2023-03-02T22:26:59.241Z,55.10
2023-03-02T22:29:29.359Z,55.60
2023-03-02T22:32:07.480Z,55.80
2023-03-02T22:34:37.754Z,55.40
2023-03-02T22:37:13.293Z,55.60
2023-03-02T22:39:42.464Z,55.90
2023-03-02T22:42:14.299Z,56.30
2023-03-02T22:44:42.440Z,55.90
2023-03-02T22:47:16.881Z,55.60
2023-03-02T22:49:44.893Z,55.70
2023-03-02T22:52:15.537Z,56.10
2023-03-02T22:54:43.400Z,56.40
2023-03-02T22:57:26.031Z,56.30
2023-03-02T23:00:00.380Z,56.40
